Flinterbrise — PHCA — position and weather

sailwx.info

Track history (hours):
 
Tides and Currents Weather Stations Pressure Air Temp Water Temp Dewpoint Dewpoint Depression Visibility Wind Speed Wind Dir Waves Ship Positions

Flinterbrise

Last reported at 2015-Mar-05 08:20 UTC. Time now 2015-Mar-05 12:00 UTC.
Position N 54°57' E 013°29'.

Length 83 m; draft 5.5 m.

Type: Ship. MMSI: 246044000.

Date/timePositionNaut miles runAvg speedWind from/ knotsBaromVisibWave heightAir tempDewpointWater temp
2015-Mar-05 08:20N 54°57' E 013°29'2011.1
2015-Mar-05 06:33N 55°04' E 014°02'10 9.6
2015-Mar-05 05:33N 55°10' E 014°13'10 9.8
2015-Mar-05 04:33N 55°18' E 014°24'1010.0
2015-Mar-05 03:33N 55°26' E 014°35'10 9.6
2015-Mar-05 02:33N 55°31' E 014°50'1010.0
2015-Mar-05 01:33N 55°36' E 015°05'363 9.4
2015-Mar-03 11:03N 59°39' E 023°28'510.0
2015-Mar-03 10:32N 59°41' E 023°38'1010.1
2015-Mar-03 09:33N 59°43' E 023°57'78 9.7
2015-Mar-03 01:31N 60°12' E 026°22'8 8.0
2015-Mar-03 00:34N 60°19' E 026°20'6 5.6
2015-Mar-02 23:32N 60°25' E 026°15'0 0.0
2015-Mar-02 22:12N 60°25' E 026°15'0 0.0
2015-Mar-02 20:18N 60°25' E 026°15'0 0.0
2015-Mar-02 19:18N 60°25' E 026°15'0 0.0
2015-Mar-02 18:33N 60°25' E 026°15'0 0.0
2015-Mar-02 17:30N 60°25' E 026°15'0 0.0
2015-Mar-02 15:24N 60°25' E 026°15'0 0.0
2015-Mar-02 14:24N 60°25' E 026°15'0 0.0
2015-Mar-02 13:24N 60°25' E 026°15'0 0.0
2015-Mar-02 12:30N 60°25' E 026°15'0 0.0
2015-Mar-02 11:12N 60°25' E 026°15'0 0.0
2015-Mar-02 10:30N 60°25' E 026°15'0 0.0
2015-Mar-02 09:30N 60°25' E 026°15'0 0.0
2015-Mar-02 08:33N 60°25' E 026°15'0 0.0
2015-Mar-02 07:24N 60°25' E 026°15'0 0.0
2015-Mar-02 06:21N 60°25' E 026°15'0 0.0
2015-Mar-02 05:24N 60°25' E 026°15'0 0.0
2015-Mar-02 04:30N 60°25' E 026°15'0 0.0
2015-Mar-02 03:30N 60°25' E 026°15'0 0.0
2015-Mar-02 02:06N 60°25' E 026°15'0 0.0
2015-Mar-02 01:30N 60°25' E 026°15'0 0.0
2015-Mar-02 00:24N 60°25' E 026°15'0 0.0
2015-Mar-01 23:30N 60°25' E 026°15'0 0.0
2015-Mar-01 22:24N 60°25' E 026°15'0 0.0
2015-Mar-01 21:24N 60°25' E 026°15'0 0.0
2015-Mar-01 20:30N 60°25' E 026°15'0 0.0
2015-Mar-01 19:30N 60°25' E 026°15'0 0.0
2015-Mar-01 18:24N 60°25' E 026°15'0 0.0
2015-Mar-01 17:06N 60°25' E 026°15'0 0.0
2015-Mar-01 16:30N 60°25' E 026°15'0 0.0
2015-Mar-01 15:12N 60°25' E 026°15'0 0.0
2015-Mar-01 14:30N 60°25' E 026°15'0 0.0
2015-Mar-01 13:30N 60°25' E 026°15'0 0.0
2015-Mar-01 12:33N 60°25' E 026°15'0 0.0
2015-Mar-01 11:30N 60°25' E 026°15'0 0.0
2015-Mar-01 10:30N 60°25' E 026°15'0 0.0
2015-Mar-01 09:33N 60°25' E 026°15'0 0.0
2015-Mar-01 08:24N 60°25' E 026°15'0 0.0
2015-Mar-01 07:24N 60°25' E 026°15'0 0.0
2015-Mar-01 06:30N 60°25' E 026°15'0 0.0
2015-Mar-01 05:30N 60°25' E 026°15'0 0.0
2015-Mar-01 04:18N 60°25' E 026°15'0 0.0
2015-Mar-01 03:24N 60°25' E 026°15'0 0.0
2015-Mar-01 02:27N 60°25' E 026°15'0 0.0
2015-Mar-01 01:21N 60°25' E 026°15'0 0.0
2015-Mar-01 00:30N 60°25' E 026°15'0 0.0
2015-Feb-28 23:24N 60°25' E 026°15'0 0.0
2015-Feb-28 22:30N 60°25' E 026°15'0 0.0
2015-Feb-28 21:18N 60°25' E 026°15'0 0.0
2015-Feb-28 20:27N 60°25' E 026°15'0 0.0
2015-Feb-28 19:24N 60°25' E 026°15'0 0.0
2015-Feb-28 18:30N 60°25' E 026°15'0 0.0
2015-Feb-28 17:30N 60°25' E 026°15'0 0.0
2015-Feb-28 16:06N 60°25' E 026°15'0 0.0
2015-Feb-28 15:27N 60°25' E 026°15'0 0.0
2015-Feb-28 14:24N 60°25' E 026°15'0 0.0
2015-Feb-28 13:24N 60°25' E 026°15'0 0.0
2015-Feb-28 12:15N 60°25' E 026°15'0 0.0
2015-Feb-28 11:30N 60°25' E 026°15'0 0.0
2015-Feb-28 10:30N 60°25' E 026°15'0 0.0
2015-Feb-28 09:24N 60°25' E 026°15'0 0.0
2015-Feb-28 08:30N 60°25' E 026°15'0 0.0
2015-Feb-28 07:34N 60°25' E 026°15'5 5.2
2015-Feb-28 06:33N 60°20' E 026°20'10 9.5
2015-Feb-28 05:33N 60°10' E 026°21'54 8.7
2015-Feb-27 23:21N 59°46' E 024°45'7 9.2
2015-Feb-27 22:33N 59°44' E 024°31'10 9.3
2015-Feb-27 21:29N 59°41' E 024°12'9 9.4
2015-Feb-27 20:33N 59°38' E 023°56'9 9.2
2015-Feb-27 19:33N 59°36' E 023°38'9 9.2
2015-Feb-27 18:32N 59°33' E 023°21'  
2015-Feb-25 13:33N 57°27' E 017°19'1211.4
2015-Feb-25 12:32N 57°15' E 017°15'11810.4
2015-Feb-25 01:06N 55°36' E 015°19'611.4
2015-Feb-25 00:33N 55°32' E 015°09'1111.3
2015-Feb-24 23:33N 55°27' E 014°52'1111.2
2015-Feb-24 22:33N 55°21' E 014°36'1111.1
2015-Feb-24 21:33N 55°12' E 014°23'1111.1
2015-Feb-24 20:33N 55°04' E 014°10'1111.1
2015-Feb-24 19:33N 54°59' E 013°53'1211.5
2015-Feb-24 18:33N 54°55' E 013°34'2710.9
2015-Feb-24 16:06N 54°43' E 012°52'610.4
2015-Feb-24 15:33N 54°40' E 012°44'1111.2
2015-Feb-24 14:33N 54°35' E 012°27'1110.7
2015-Feb-24 13:33N 54°27' E 012°14'1110.8
2015-Feb-24 12:33N 54°25' E 011°56'10 9.8
2015-Feb-24 11:33N 54°27' E 011°40'1010.0
2015-Feb-24 10:34N 54°31' E 011°24'1010.3
2015-Feb-24 09:33N 54°34' E 011°07'2110.5
2015-Feb-24 07:32N 54°32' E 010°30'1010.0
2015-Feb-24 06:33N 54°27' E 010°16'7 6.7
2015-Feb-24 05:33N 54°22' E 010°08'3 2.9
2015-Feb-24 04:33N 54°22' E 010°03'8 7.5
2015-Feb-24 03:33N 54°22' E 009°51'8 7.7
2015-Feb-24 02:28N 54°17' E 009°39'16 7.9
2015-Feb-24 00:28N 54°06' E 009°20'4 4.0
2015-Feb-23 23:33N 54°02' E 009°18'4 3.8
2015-Feb-23 22:33N 53°59' E 009°17'5 5.4
2015-Feb-23 21:33N 53°55' E 009°11'0 0.0
2015-Feb-23 20:33N 53°55' E 009°11'2 1.6
2015-Feb-23 19:33N 53°54' E 009°09'1 1.3
2015-Feb-23 18:33N 53°53' E 009°07'7 7.0
2015-Feb-23 17:33N 53°51' E 008°56'10 9.9
2015-Feb-23 16:33N 53°55' E 008°41'1111.3
2015-Feb-23 15:33N 53°59' E 008°23'1110.8
2015-Feb-23 14:33N 53°58' E 008°04'11 9.8
2015-Feb-23 13:28N 53°56' E 007°47'910.0
2015-Feb-23 12:33N 53°54' E 007°31'  
Track history (hours):
 
Tides and Currents Weather Stations Pressure Air Temp Water Temp Dewpoint Dewpoint Depression Visibility Wind Speed Wind Dir Waves Ship Positions

Flinterbrise

Last reported at 2015-Mar-05 08:20 UTC. Time now 2015-Mar-05 12:00 UTC.
Position N 54°57' E 013°29'.

Length 83 m; draft 5.5 m.

Type: Ship. MMSI: 246044000.

Date/timePositionNaut miles runAvg speedWind from/ knotsBaromVisibWave heightAir tempDewpointWater temp
2015-Mar-05 08:20N 54°57' E 013°29'2011.1
2015-Mar-05 06:33N 55°04' E 014°02'10 9.6
2015-Mar-05 05:33N 55°10' E 014°13'10 9.8
2015-Mar-05 04:33N 55°18' E 014°24'1010.0
2015-Mar-05 03:33N 55°26' E 014°35'10 9.6
2015-Mar-05 02:33N 55°31' E 014°50'1010.0
2015-Mar-05 01:33N 55°36' E 015°05'363 9.4
2015-Mar-03 11:03N 59°39' E 023°28'510.0
2015-Mar-03 10:32N 59°41' E 023°38'1010.1
2015-Mar-03 09:33N 59°43' E 023°57'78 9.7
2015-Mar-03 01:31N 60°12' E 026°22'8 8.0
2015-Mar-03 00:34N 60°19' E 026°20'6 5.6
2015-Mar-02 23:32N 60°25' E 026°15'0 0.0
2015-Mar-02 22:12N 60°25' E 026°15'0 0.0
2015-Mar-02 20:18N 60°25' E 026°15'0 0.0
2015-Mar-02 19:18N 60°25' E 026°15'0 0.0
2015-Mar-02 18:33N 60°25' E 026°15'0 0.0
2015-Mar-02 17:30N 60°25' E 026°15'0 0.0
2015-Mar-02 15:24N 60°25' E 026°15'0 0.0
2015-Mar-02 14:24N 60°25' E 026°15'0 0.0
2015-Mar-02 13:24N 60°25' E 026°15'0 0.0
2015-Mar-02 12:30N 60°25' E 026°15'0 0.0
2015-Mar-02 11:12N 60°25' E 026°15'0 0.0
2015-Mar-02 10:30N 60°25' E 026°15'0 0.0
2015-Mar-02 09:30N 60°25' E 026°15'0 0.0
2015-Mar-02 08:33N 60°25' E 026°15'0 0.0
2015-Mar-02 07:24N 60°25' E 026°15'0 0.0
2015-Mar-02 06:21N 60°25' E 026°15'0 0.0
2015-Mar-02 05:24N 60°25' E 026°15'0 0.0
2015-Mar-02 04:30N 60°25' E 026°15'0 0.0
2015-Mar-02 03:30N 60°25' E 026°15'0 0.0
2015-Mar-02 02:06N 60°25' E 026°15'0 0.0
2015-Mar-02 01:30N 60°25' E 026°15'0 0.0
2015-Mar-02 00:24N 60°25' E 026°15'0 0.0
2015-Mar-01 23:30N 60°25' E 026°15'0 0.0
2015-Mar-01 22:24N 60°25' E 026°15'0 0.0
2015-Mar-01 21:24N 60°25' E 026°15'0 0.0
2015-Mar-01 20:30N 60°25' E 026°15'0 0.0
2015-Mar-01 19:30N 60°25' E 026°15'0 0.0
2015-Mar-01 18:24N 60°25' E 026°15'0 0.0
2015-Mar-01 17:06N 60°25' E 026°15'0 0.0
2015-Mar-01 16:30N 60°25' E 026°15'0 0.0
2015-Mar-01 15:12N 60°25' E 026°15'0 0.0
2015-Mar-01 14:30N 60°25' E 026°15'0 0.0
2015-Mar-01 13:30N 60°25' E 026°15'0 0.0
2015-Mar-01 12:33N 60°25' E 026°15'0 0.0
2015-Mar-01 11:30N 60°25' E 026°15'0 0.0
2015-Mar-01 10:30N 60°25' E 026°15'0 0.0
2015-Mar-01 09:33N 60°25' E 026°15'0 0.0
2015-Mar-01 08:24N 60°25' E 026°15'0 0.0
2015-Mar-01 07:24N 60°25' E 026°15'0 0.0
2015-Mar-01 06:30N 60°25' E 026°15'0 0.0
2015-Mar-01 05:30N 60°25' E 026°15'0 0.0
2015-Mar-01 04:18N 60°25' E 026°15'0 0.0
2015-Mar-01 03:24N 60°25' E 026°15'0 0.0
2015-Mar-01 02:27N 60°25' E 026°15'0 0.0
2015-Mar-01 01:21N 60°25' E 026°15'0 0.0
2015-Mar-01 00:30N 60°25' E 026°15'0 0.0
2015-Feb-28 23:24N 60°25' E 026°15'0 0.0
2015-Feb-28 22:30N 60°25' E 026°15'0 0.0
2015-Feb-28 21:18N 60°25' E 026°15'0 0.0
2015-Feb-28 20:27N 60°25' E 026°15'0 0.0
2015-Feb-28 19:24N 60°25' E 026°15'0 0.0
2015-Feb-28 18:30N 60°25' E 026°15'0 0.0
2015-Feb-28 17:30N 60°25' E 026°15'0 0.0
2015-Feb-28 16:06N 60°25' E 026°15'0 0.0
2015-Feb-28 15:27N 60°25' E 026°15'0 0.0
2015-Feb-28 14:24N 60°25' E 026°15'0 0.0
2015-Feb-28 13:24N 60°25' E 026°15'0 0.0
2015-Feb-28 12:15N 60°25' E 026°15'0 0.0
2015-Feb-28 11:30N 60°25' E 026°15'0 0.0
2015-Feb-28 10:30N 60°25' E 026°15'0 0.0
2015-Feb-28 09:24N 60°25' E 026°15'0 0.0
2015-Feb-28 08:30N 60°25' E 026°15'0 0.0
2015-Feb-28 07:34N 60°25' E 026°15'5 5.2
2015-Feb-28 06:33N 60°20' E 026°20'10 9.5
2015-Feb-28 05:33N 60°10' E 026°21'54 8.7
2015-Feb-27 23:21N 59°46' E 024°45'7 9.2
2015-Feb-27 22:33N 59°44' E 024°31'10 9.3
2015-Feb-27 21:29N 59°41' E 024°12'9 9.4
2015-Feb-27 20:33N 59°38' E 023°56'9 9.2
2015-Feb-27 19:33N 59°36' E 023°38'9 9.2
2015-Feb-27 18:32N 59°33' E 023°21'  
2015-Feb-25 13:33N 57°27' E 017°19'1211.4
2015-Feb-25 12:32N 57°15' E 017°15'11810.4
2015-Feb-25 01:06N 55°36' E 015°19'611.4
2015-Feb-25 00:33N 55°32' E 015°09'1111.3
2015-Feb-24 23:33N 55°27' E 014°52'1111.2
2015-Feb-24 22:33N 55°21' E 014°36'1111.1
2015-Feb-24 21:33N 55°12' E 014°23'1111.1
2015-Feb-24 20:33N 55°04' E 014°10'1111.1
2015-Feb-24 19:33N 54°59' E 013°53'1211.5
2015-Feb-24 18:33N 54°55' E 013°34'2710.9
2015-Feb-24 16:06N 54°43' E 012°52'610.4
2015-Feb-24 15:33N 54°40' E 012°44'1111.2
2015-Feb-24 14:33N 54°35' E 012°27'1110.7
2015-Feb-24 13:33N 54°27' E 012°14'1110.8
2015-Feb-24 12:33N 54°25' E 011°56'10 9.8
2015-Feb-24 11:33N 54°27' E 011°40'1010.0
2015-Feb-24 10:34N 54°31' E 011°24'1010.3
2015-Feb-24 09:33N 54°34' E 011°07'2110.5
2015-Feb-24 07:32N 54°32' E 010°30'1010.0
2015-Feb-24 06:33N 54°27' E 010°16'7 6.7
2015-Feb-24 05:33N 54°22' E 010°08'3 2.9
2015-Feb-24 04:33N 54°22' E 010°03'8 7.5
2015-Feb-24 03:33N 54°22' E 009°51'8 7.7
2015-Feb-24 02:28N 54°17' E 009°39'16 7.9
2015-Feb-24 00:28N 54°06' E 009°20'4 4.0
2015-Feb-23 23:33N 54°02' E 009°18'4 3.8
2015-Feb-23 22:33N 53°59' E 009°17'5 5.4
2015-Feb-23 21:33N 53°55' E 009°11'0 0.0
2015-Feb-23 20:33N 53°55' E 009°11'2 1.6
2015-Feb-23 19:33N 53°54' E 009°09'1 1.3
2015-Feb-23 18:33N 53°53' E 009°07'7 7.0
2015-Feb-23 17:33N 53°51' E 008°56'10 9.9
2015-Feb-23 16:33N 53°55' E 008°41'1111.3
2015-Feb-23 15:33N 53°59' E 008°23'1110.8
2015-Feb-23 14:33N 53°58' E 008°04'11 9.8
2015-Feb-23 13:28N 53°56' E 007°47'910.0
2015-Feb-23 12:33N 53°54' E 007°31'  

Dump ship's entire track history